createdAt,value
2023-03-05T00:00:15.699Z,16.43
2023-03-05T00:02:43.143Z,13.53
2023-03-05T00:05:10.748Z,16.77
2023-03-05T00:07:38.034Z,15.67
2023-03-05T00:10:06.984Z,14.53
2023-03-05T00:12:34.398Z,16.00
2023-03-05T00:15:01.176Z,15.10
2023-03-05T00:17:28.000Z,14.70
2023-03-05T00:19:54.905Z,14.80
2023-03-05T00:22:21.685Z,14.70
2023-03-05T00:24:51.617Z,15.73
2023-03-05T00:27:18.661Z,13.97
2023-03-05T00:29:45.509Z,15.73
2023-03-05T00:32:12.275Z,14.40
2023-03-05T00:34:39.124Z,15.40
2023-03-05T00:37:05.996Z,14.43
2023-03-05T00:39:32.862Z,13.90
2023-03-05T00:41:59.618Z,14.77
2023-03-05T00:44:26.422Z,14.67
2023-03-05T00:46:53.301Z,15.57
2023-03-05T00:49:20.198Z,14.83
2023-03-05T00:51:46.975Z,14.10
2023-03-05T00:54:13.829Z,13.27
2023-03-05T00:56:40.620Z,14.67
2023-03-05T00:59:07.531Z,15.10
2023-03-05T01:01:34.322Z,14.27
2023-03-05T01:04:01.398Z,14.93
2023-03-05T01:06:29.447Z,14.17
2023-03-05T01:08:56.698Z,15.80
2023-03-05T01:11:23.472Z,16.07
2023-03-05T01:13:50.292Z,15.57
2023-03-05T01:16:17.151Z,19.87
2023-03-05T01:18:43.911Z,15.63
2023-03-05T01:21:10.970Z,16.80
2023-03-05T01:23:37.829Z,16.50
2023-03-05T01:26:04.997Z,16.40
2023-03-05T01:28:32.660Z,16.03
2023-03-05T01:30:59.484Z,15.57
2023-03-05T01:33:26.343Z,14.93
2023-03-05T01:35:53.254Z,15.47
2023-03-05T01:38:20.118Z,15.20
2023-03-05T01:40:46.910Z,15.53
2023-03-05T01:43:13.661Z,16.00
2023-03-05T01:46:16.763Z,15.43
2023-03-05T01:48:47.998Z,14.83
2023-03-05T01:51:16.236Z,15.37
2023-03-05T01:53:43.085Z,14.70
2023-03-05T01:56:10.003Z,14.53
2023-03-05T01:58:39.818Z,13.53
2023-03-05T02:01:08.062Z,13.20
2023-03-05T02:03:35.970Z,13.83
2023-03-05T02:06:03.201Z,13.50
2023-03-05T02:08:30.041Z,13.50
2023-03-05T02:10:57.342Z,13.30
2023-03-05T02:13:27.818Z,13.17
2023-03-05T02:15:58.085Z,12.40
2023-03-05T02:18:24.992Z,12.67
2023-03-05T02:20:57.388Z,12.30
2023-03-05T02:23:27.328Z,11.80
2023-03-05T02:25:54.654Z,12.83
2023-03-05T02:28:42.445Z,12.07
2023-03-05T02:31:13.278Z,12.00
2023-03-05T02:33:40.408Z,13.50
2023-03-05T02:36:07.882Z,13.83
2023-03-05T02:38:35.214Z,13.37
2023-03-05T02:41:01.969Z,12.63
2023-03-05T02:43:28.727Z,14.13
2023-03-05T02:45:55.591Z,13.17
2023-03-05T02:48:22.790Z,12.57
2023-03-05T02:50:49.708Z,13.80
2023-03-05T02:53:16.672Z,14.17
2023-03-05T02:55:47.515Z,14.40
2023-03-05T02:58:14.894Z,14.40
2023-03-05T03:00:42.046Z,15.80
2023-03-05T03:03:09.096Z,15.50
2023-03-05T03:05:36.825Z,15.37
2023-03-05T03:08:03.895Z,15.70
2023-03-05T03:10:31.149Z,16.70
2023-03-05T03:12:58.046Z,15.60
2023-03-05T03:15:24.951Z,15.00
2023-03-05T03:17:51.670Z,14.90
2023-03-05T03:20:19.473Z,15.93
2023-03-05T03:22:47.101Z,16.17
2023-03-05T03:25:17.561Z,15.83
2023-03-05T03:27:44.676Z,15.93
2023-03-05T03:30:13.288Z,15.73
2023-03-05T03:32:40.140Z,16.97
2023-03-05T03:35:07.441Z,16.93
2023-03-05T03:37:34.320Z,17.13
2023-03-05T03:40:01.053Z,15.70
2023-03-05T03:42:27.957Z,15.00
2023-03-05T03:44:54.725Z,16.00
2023-03-05T03:47:21.449Z,16.07
2023-03-05T03:49:48.456Z,16.90
2023-03-05T03:52:15.321Z,16.07
2023-03-05T03:54:42.168Z,15.03
2023-03-05T03:57:09.892Z,16.70
2023-03-05T03:59:36.742Z,15.47
2023-03-05T05:00:16.748Z,13.60
2023-03-05T05:02:45.656Z,14.37
2023-03-05T05:05:15.889Z,13.57
2023-03-05T05:07:43.195Z,14.77
2023-03-05T05:10:11.032Z,14.10
2023-03-05T05:12:37.861Z,14.73
2023-03-05T05:15:06.155Z,15.10
2023-03-05T05:17:34.009Z,15.10
2023-03-05T05:20:01.555Z,13.23
2023-03-05T05:22:29.481Z,14.13
2023-03-05T05:24:56.791Z,13.27
2023-03-05T05:27:23.959Z,13.10
2023-03-05T05:29:51.019Z,12.70
2023-03-05T05:32:18.672Z,14.33
2023-03-05T05:34:45.559Z,13.53
2023-03-05T05:37:12.605Z,13.60
2023-03-05T05:39:39.570Z,13.73
2023-03-05T05:42:06.636Z,14.33
2023-03-05T05:44:34.956Z,13.63
2023-03-05T05:47:01.889Z,14.80
2023-03-05T05:49:28.645Z,13.07
2023-03-05T05:51:55.418Z,14.30
2023-03-05T05:54:22.569Z,14.37
2023-03-05T05:56:49.356Z,14.23
2023-03-05T05:59:16.116Z,15.37
2023-03-05T06:01:43.000Z,16.00
2023-03-05T06:04:09.916Z,16.47
2023-03-05T06:06:36.742Z,15.87
2023-03-05T06:09:04.195Z,14.60
2023-03-05T06:11:31.132Z,13.50
2023-03-05T06:13:58.392Z,15.63
2023-03-05T06:16:25.766Z,14.37
2023-03-05T06:18:53.481Z,14.90
2023-03-05T06:21:22.427Z,14.43
2023-03-05T06:23:49.909Z,15.17
2023-03-05T06:26:19.921Z,14.63
2023-03-05T06:28:47.153Z,13.70
2023-03-05T06:31:16.868Z,15.20
2023-03-05T06:33:44.296Z,14.87
2023-03-05T06:36:13.945Z,15.40
2023-03-05T06:38:41.648Z,15.13
2023-03-05T06:41:11.845Z,14.50
2023-03-05T06:43:40.430Z,14.87
2023-03-05T06:46:17.023Z,14.80
2023-03-05T06:48:44.571Z,15.00
2023-03-05T06:51:17.293Z,14.80
2023-03-05T06:53:47.248Z,14.77
2023-03-05T06:56:16.840Z,14.97
2023-03-05T06:58:45.955Z,16.27
2023-03-05T07:01:13.817Z,15.40
2023-03-05T07:03:41.369Z,15.03
2023-03-05T07:06:10.965Z,14.87
2023-03-05T07:08:39.095Z,14.70
2023-03-05T07:11:16.349Z,14.87
2023-03-05T07:13:43.912Z,14.73
2023-03-05T07:16:15.125Z,15.70
2023-03-05T07:18:42.028Z,15.27
2023-03-05T07:21:09.927Z,15.27
2023-03-05T07:23:37.056Z,16.03
2023-03-05T07:26:05.477Z,16.17
2023-03-05T07:28:32.903Z,16.63
2023-03-05T07:31:02.292Z,15.67
2023-03-05T07:33:29.147Z,14.90
2023-03-05T07:35:56.698Z,15.73
2023-03-05T07:38:23.479Z,16.40
2023-03-05T07:40:51.013Z,16.73
2023-03-05T07:43:18.073Z,15.70
2023-03-05T07:45:45.880Z,15.33
2023-03-05T07:48:15.580Z,15.50
2023-03-05T07:50:42.968Z,15.70
2023-03-05T07:53:10.600Z,16.70
2023-03-05T07:55:44.119Z,16.07
2023-03-05T07:58:13.103Z,16.17
2023-03-05T08:00:40.796Z,16.10
2023-03-05T08:03:08.129Z,16.20
2023-03-05T08:05:35.123Z,15.80
2023-03-05T08:08:01.917Z,14.63
2023-03-05T08:10:28.857Z,15.77
2023-03-05T08:12:55.666Z,15.97
2023-03-05T08:15:22.520Z,16.73
2023-03-05T08:17:49.319Z,18.20
2023-03-05T08:20:16.330Z,15.00
2023-03-05T08:22:43.176Z,14.00
2023-03-05T08:25:10.618Z,16.17
2023-03-05T08:27:40.407Z,16.13
2023-03-05T08:30:08.736Z,15.67
2023-03-05T08:32:35.604Z,16.50
2023-03-05T08:35:04.214Z,14.67
2023-03-05T08:37:31.318Z,15.50
2023-03-05T08:39:58.435Z,15.43
2023-03-05T08:42:25.844Z,15.53
2023-03-05T08:44:52.604Z,15.10
2023-03-05T08:47:20.468Z,13.50
2023-03-05T08:49:47.411Z,15.43
2023-03-05T08:52:14.345Z,14.67
2023-03-05T08:54:41.124Z,14.53
2023-03-05T08:57:08.572Z,14.90
2023-03-05T08:59:35.356Z,16.00
2023-03-05T09:02:03.055Z,14.10
2023-03-05T09:04:29.972Z,15.13
2023-03-05T09:06:57.724Z,14.73
2023-03-05T09:09:25.021Z,14.97
2023-03-05T09:11:52.345Z,14.80
2023-03-05T09:14:20.993Z,15.30
2023-03-05T09:16:47.847Z,15.17
2023-03-05T09:19:15.294Z,14.57
2023-03-05T09:21:42.455Z,15.70
2023-03-05T09:24:09.345Z,15.77
2023-03-05T09:26:36.197Z,14.33
2023-03-05T09:29:03.612Z,14.30
2023-03-05T09:31:30.575Z,15.23
2023-03-05T09:33:57.402Z,15.17
2023-03-05T09:36:27.961Z,13.60
2023-03-05T09:38:55.202Z,14.57
2023-03-05T09:41:38.637Z,14.60
2023-03-05T09:44:20.779Z,14.70
2023-03-05T09:47:05.504Z,14.73
2023-03-05T09:49:47.062Z,14.20
2023-03-05T09:52:20.878Z,14.40
2023-03-05T09:54:54.247Z,15.60
2023-03-05T09:57:30.555Z,15.10
2023-03-05T10:00:02.255Z,14.33
2023-03-05T10:02:34.324Z,15.87
2023-03-05T10:05:17.699Z,16.20
2023-03-05T10:07:53.568Z,15.37
2023-03-05T10:10:27.514Z,14.40
2023-03-05T10:12:59.224Z,14.53
2023-03-05T10:15:39.896Z,14.83
2023-03-05T10:18:20.481Z,15.00
2023-03-05T10:20:51.852Z,14.97
2023-03-05T10:23:54.784Z,16.10
2023-03-05T10:26:30.962Z,13.93
2023-03-05T10:29:13.400Z,15.20
2023-03-05T10:31:58.947Z,13.33
2023-03-05T10:34:54.110Z,15.30
2023-03-05T10:37:36.152Z,14.50
2023-03-05T10:40:19.501Z,12.50
2023-03-05T10:42:51.814Z,14.40
2023-03-05T10:45:23.599Z,14.07
2023-03-05T10:47:57.507Z,13.20
2023-03-05T10:50:28.866Z,13.70
2023-03-05T10:53:16.919Z,12.10
2023-03-05T10:55:43.906Z,15.00
2023-03-05T10:58:13.963Z,12.70
2023-03-05T11:00:58.467Z,12.60
2023-03-05T11:03:25.535Z,13.50
2023-03-05T11:06:00.752Z,14.40
2023-03-05T11:08:31.320Z,12.37
2023-03-05T11:11:19.444Z,12.50
2023-03-05T11:13:57.536Z,12.53
2023-03-05T11:16:28.846Z,12.43
2023-03-05T11:19:11.064Z,12.53
2023-03-05T11:21:38.033Z,11.47
2023-03-05T11:24:15.293Z,11.80
2023-03-05T11:26:58.030Z,12.97
2023-03-05T11:29:28.091Z,12.07
2023-03-05T11:31:55.360Z,12.57
2023-03-05T11:34:30.480Z,11.07
2023-03-05T11:36:57.439Z,11.53
2023-03-05T11:39:26.238Z,12.87
2023-03-05T11:41:57.439Z,12.40
2023-03-05T11:44:38.178Z,13.40
2023-03-05T11:47:34.632Z,12.47
2023-03-05T11:50:13.425Z,12.40
2023-03-05T11:52:47.114Z,12.83
2023-03-05T11:55:19.385Z,12.30
2023-03-05T11:58:00.422Z,12.60
2023-03-05T12:00:31.537Z,13.67
2023-03-05T12:03:02.615Z,12.17
2023-03-05T12:05:31.804Z,12.60
2023-03-05T12:08:01.938Z,13.27
2023-03-05T12:10:29.023Z,13.20
2023-03-05T12:13:05.008Z,13.60
2023-03-05T12:15:58.153Z,12.57
2023-03-05T12:18:40.771Z,12.10
2023-03-05T12:21:24.885Z,13.67
2023-03-05T12:23:55.118Z,14.80
2023-03-05T12:26:59.186Z,14.80
2023-03-05T12:29:33.461Z,15.80
2023-03-05T12:32:01.605Z,13.57
2023-03-05T12:34:48.221Z,14.33
2023-03-05T12:37:34.902Z,12.37
2023-03-05T12:40:09.194Z,11.73
2023-03-05T12:42:39.677Z,12.20
2023-03-05T12:45:16.160Z,12.23
2023-03-05T12:47:45.732Z,13.07
2023-03-05T12:50:28.080Z,12.03
2023-03-05T12:53:12.633Z,13.40
2023-03-05T12:55:55.636Z,13.20
2023-03-05T12:58:40.489Z,11.90
2023-03-05T13:01:20.541Z,12.50
2023-03-05T13:03:52.890Z,12.50
2023-03-05T13:06:30.817Z,10.93
2023-03-05T13:09:03.506Z,11.83
2023-03-05T13:11:34.488Z,12.40
2023-03-05T13:14:02.886Z,11.67
2023-03-05T13:16:38.245Z,12.47
2023-03-05T13:19:15.099Z,13.17
2023-03-05T13:21:42.093Z,11.37
2023-03-05T13:24:24.249Z,11.67
2023-03-05T13:26:51.407Z,12.87
2023-03-05T13:29:20.587Z,13.60
2023-03-05T13:31:48.466Z,13.87
2023-03-05T13:34:46.289Z,12.20
2023-03-05T13:37:20.257Z,13.23
2023-03-05T13:39:49.599Z,13.60
2023-03-05T13:42:18.155Z,12.93
2023-03-05T13:44:54.755Z,14.30
2023-03-05T13:47:23.968Z,14.30
2023-03-05T13:50:00.117Z,13.30
2023-03-05T13:52:30.912Z,13.17
2023-03-05T13:55:02.795Z,14.60
2023-03-05T13:57:40.821Z,13.53
2023-03-05T14:00:34.429Z,14.57
2023-03-05T14:03:15.413Z,14.80
2023-03-05T14:05:45.477Z,14.30
2023-03-05T14:08:26.403Z,15.13
2023-03-05T14:10:58.115Z,13.47
2023-03-05T14:13:27.760Z,13.70
2023-03-05T14:16:11.163Z,13.20
2023-03-05T14:18:38.905Z,13.37
2023-03-05T14:21:11.090Z,13.43
2023-03-05T14:23:44.003Z,13.77
2023-03-05T14:26:41.436Z,12.60
2023-03-05T14:29:09.419Z,12.60
2023-03-05T14:31:48.000Z,11.57
2023-03-05T14:34:24.523Z,13.10
2023-03-05T14:36:54.327Z,12.60
2023-03-05T14:39:28.947Z,12.20
2023-03-05T14:41:56.826Z,11.87
2023-03-05T14:44:25.734Z,13.00
2023-03-05T14:46:52.556Z,12.00
2023-03-05T14:49:19.588Z,12.87
2023-03-05T14:51:47.385Z,11.13
2023-03-05T14:54:24.519Z,12.50
2023-03-05T14:56:52.070Z,11.90
2023-03-05T14:59:21.672Z,11.77
2023-03-05T15:01:50.470Z,12.10
2023-03-05T15:04:20.135Z,12.77
2023-03-05T15:06:52.934Z,11.57
2023-03-05T15:09:21.102Z,12.43
2023-03-05T15:11:48.533Z,11.67
2023-03-05T15:14:15.306Z,11.90
2023-03-05T15:16:44.653Z,12.70
2023-03-05T15:19:13.608Z,12.40
2023-03-05T15:21:40.756Z,12.83
2023-03-05T15:24:10.132Z,13.43
2023-03-05T15:26:37.753Z,12.20
2023-03-05T15:29:05.101Z,12.57
2023-03-05T15:31:38.410Z,13.37
2023-03-05T15:34:05.643Z,13.77
2023-03-05T15:36:33.682Z,11.80
2023-03-05T15:39:00.674Z,13.10
2023-03-05T15:41:27.582Z,12.57
2023-03-05T15:43:54.627Z,12.10
2023-03-05T15:46:21.617Z,13.17
2023-03-05T15:48:50.166Z,12.60
2023-03-05T15:51:18.113Z,12.90
2023-03-05T15:53:46.424Z,13.73
2023-03-05T15:56:16.401Z,14.60
2023-03-05T15:58:43.499Z,14.10
2023-03-05T16:01:11.946Z,13.13
2023-03-05T16:03:39.176Z,12.10
2023-03-05T16:06:06.410Z,13.87
2023-03-05T16:08:35.560Z,11.77
2023-03-05T16:11:03.946Z,12.73
2023-03-05T16:13:32.706Z,11.80
2023-03-05T16:15:59.675Z,10.87
2023-03-05T16:18:27.427Z,9.80
2023-03-05T16:20:54.788Z,10.57
2023-03-05T16:23:22.333Z,9.30
2023-03-05T16:25:49.301Z,9.90
2023-03-05T16:28:16.069Z,10.07
2023-03-05T16:30:43.335Z,9.67
2023-03-05T16:33:10.518Z,10.07
2023-03-05T16:35:37.396Z,9.70
2023-03-05T16:38:04.176Z,9.70
2023-03-05T16:40:51.362Z,11.30
2023-03-05T16:43:18.677Z,11.17
2023-03-05T16:45:45.513Z,11.37
2023-03-05T16:48:12.276Z,10.73
2023-03-05T16:50:39.080Z,12.40
2023-03-05T16:53:05.862Z,10.27
2023-03-05T16:55:32.699Z,9.43
2023-03-05T16:57:59.523Z,10.43
2023-03-05T17:00:26.432Z,10.03
2023-03-05T17:02:53.282Z,8.83
2023-03-05T17:05:20.065Z,9.83
2023-03-05T17:07:46.927Z,11.13
2023-03-05T17:10:15.964Z,9.70
2023-03-05T17:12:43.686Z,10.50
2023-03-05T17:15:10.909Z,10.50
2023-03-05T17:17:38.972Z,10.57
2023-03-05T17:20:06.815Z,10.70
2023-03-05T17:22:33.686Z,10.77
2023-03-05T17:25:00.589Z,10.80
2023-03-05T17:27:27.651Z,9.87
2023-03-05T17:29:54.566Z,9.50
2023-03-05T17:32:21.662Z,10.57
2023-03-05T17:34:48.573Z,10.70
2023-03-05T17:37:16.230Z,11.47
2023-03-05T17:39:43.104Z,11.13
2023-03-05T17:42:09.972Z,10.70
2023-03-05T17:44:36.784Z,13.60
2023-03-05T17:47:04.122Z,10.83
2023-03-05T17:49:30.981Z,11.53
2023-03-05T17:51:57.905Z,10.80
2023-03-05T17:54:24.880Z,12.73
2023-03-05T17:56:55.541Z,11.57
2023-03-05T17:59:23.370Z,10.77
2023-03-05T18:01:50.383Z,11.10
2023-03-05T18:04:19.269Z,10.50
2023-03-05T18:06:46.230Z,11.40
2023-03-05T18:09:14.225Z,11.43
2023-03-05T18:11:41.141Z,11.50
2023-03-05T18:14:07.997Z,9.60
2023-03-05T18:16:35.428Z,9.67
2023-03-05T18:19:02.433Z,11.17
2023-03-05T18:21:29.211Z,10.50
2023-03-05T18:23:56.222Z,10.13
2023-03-05T18:26:23.043Z,10.47
2023-03-05T18:28:49.894Z,9.00
2023-03-05T18:31:16.897Z,10.77
2023-03-05T18:33:43.824Z,10.50
2023-03-05T18:36:11.989Z,8.43
2023-03-05T18:38:38.891Z,10.20
2023-03-05T18:41:06.544Z,10.43
2023-03-05T18:43:33.538Z,10.40
2023-03-05T18:46:00.540Z,11.90
2023-03-05T18:48:27.386Z,14.07
2023-03-05T18:50:54.568Z,19.63
2023-03-05T18:53:22.537Z,11.10
2023-03-05T18:55:51.294Z,11.10
2023-03-05T18:58:19.171Z,9.60
2023-03-05T19:00:47.134Z,10.10
2023-03-05T19:03:15.339Z,10.00
2023-03-05T19:05:43.588Z,10.40
2023-03-05T19:08:11.012Z,9.90
2023-03-05T19:10:38.133Z,10.80
2023-03-05T19:13:39.359Z,10.33
2023-03-05T19:16:17.816Z,10.93
2023-03-05T19:18:58.182Z,10.53
2023-03-05T19:21:25.072Z,10.77
2023-03-05T19:23:51.840Z,9.73
2023-03-05T19:26:18.772Z,12.30
2023-03-05T19:28:45.716Z,18.10
2023-03-05T19:31:14.421Z,19.57
2023-03-05T19:33:42.887Z,14.67
2023-03-05T19:36:11.358Z,12.47
2023-03-05T19:38:39.125Z,11.50
2023-03-05T19:41:11.961Z,14.40
2023-03-05T19:43:39.525Z,13.23
2023-03-05T19:46:08.519Z,14.80
2023-03-05T19:48:36.697Z,14.03
2023-03-05T19:51:07.952Z,13.30
2023-03-05T19:53:34.722Z,12.90
2023-03-05T19:56:03.637Z,13.20
2023-03-05T19:58:30.386Z,12.87
2023-03-05T20:00:58.066Z,13.30
2023-03-05T20:03:25.443Z,14.17
2023-03-05T20:05:52.215Z,13.60
2023-03-05T20:08:19.061Z,12.73
2023-03-05T20:10:46.085Z,13.13
2023-03-05T20:13:12.905Z,24.80
2023-03-05T20:15:39.660Z,27.50
2023-03-05T20:18:08.480Z,19.00
2023-03-05T20:20:36.491Z,15.87
2023-03-05T20:23:03.212Z,15.03
2023-03-05T20:25:30.017Z,16.13
2023-03-05T20:27:56.883Z,14.77
2023-03-05T20:30:23.868Z,12.70
2023-03-05T20:32:50.801Z,13.60
2023-03-05T20:35:18.789Z,13.60
2023-03-05T20:38:00.148Z,14.13
2023-03-05T20:40:27.177Z,13.33
2023-03-05T20:42:53.956Z,12.77
2023-03-05T20:45:20.826Z,12.80
2023-03-05T20:47:48.723Z,13.37
2023-03-05T20:50:16.391Z,11.90
2023-03-05T20:52:43.204Z,13.83
2023-03-05T20:55:11.370Z,14.50
2023-03-05T20:57:39.191Z,12.27
2023-03-05T21:00:07.952Z,13.47
2023-03-05T21:02:34.793Z,12.70
2023-03-05T21:05:01.649Z,13.43
2023-03-05T21:07:29.711Z,12.60
2023-03-05T21:09:56.760Z,12.67
2023-03-05T21:12:23.548Z,11.87
2023-03-05T21:14:50.452Z,11.27
2023-03-05T21:17:18.040Z,12.37
2023-03-05T21:19:44.930Z,11.40
2023-03-05T21:22:11.727Z,12.83
2023-03-05T21:24:54.050Z,13.80
2023-03-05T21:27:21.107Z,14.13
2023-03-05T21:29:48.124Z,14.87
2023-03-05T21:32:15.359Z,14.97
2023-03-05T21:34:44.101Z,13.63
2023-03-05T21:37:12.070Z,13.77
2023-03-05T21:39:38.965Z,14.37
2023-03-05T21:42:06.016Z,14.23
2023-03-05T21:44:33.000Z,14.50
2023-03-05T21:46:59.815Z,16.47
2023-03-05T21:49:26.604Z,14.67
2023-03-05T21:52:09.152Z,14.83
2023-03-05T21:54:37.599Z,13.83
2023-03-05T21:57:05.733Z,11.87
2023-03-05T21:59:32.768Z,11.33
2023-03-05T22:01:59.923Z,11.80
2023-03-05T22:04:27.174Z,11.47
2023-03-05T22:06:54.104Z,12.90
2023-03-05T22:09:20.871Z,12.20
2023-03-05T22:11:47.942Z,12.30
2023-03-05T22:14:16.805Z,12.50
2023-03-05T22:16:44.290Z,12.00
2023-03-05T22:19:11.284Z,12.53
2023-03-05T22:21:38.228Z,10.93
2023-03-05T22:24:05.188Z,10.70
2023-03-05T22:26:35.573Z,10.63
2023-03-05T22:29:03.481Z,11.37
2023-03-05T22:31:30.513Z,10.90
2023-03-05T22:33:57.938Z,12.07
2023-03-05T22:36:25.291Z,10.93
2023-03-05T22:38:52.661Z,11.70
2023-03-05T22:41:21.020Z,11.63
2023-03-05T22:43:49.224Z,10.43
2023-03-05T22:46:20.727Z,12.70
2023-03-05T22:48:48.170Z,11.40
2023-03-05T22:51:16.191Z,13.30
2023-03-05T22:53:43.464Z,14.27
2023-03-05T22:56:13.079Z,13.70
2023-03-05T22:58:40.320Z,12.70
2023-03-05T23:01:24.129Z,12.10
2023-03-05T23:03:57.259Z,11.80
2023-03-05T23:06:24.961Z,12.67
2023-03-05T23:08:51.834Z,11.50
2023-03-05T23:11:18.591Z,11.73
2023-03-05T23:13:45.387Z,11.00
2023-03-05T23:16:12.522Z,12.63
2023-03-05T23:18:39.320Z,10.20
2023-03-05T23:21:06.216Z,11.40
2023-03-05T23:23:33.306Z,11.50
2023-03-05T23:26:00.138Z,12.10
2023-03-05T23:28:27.084Z,12.67
2023-03-05T23:30:53.930Z,13.60
2023-03-05T23:33:22.823Z,12.67
2023-03-05T23:35:54.296Z,11.97
2023-03-05T23:38:21.711Z,11.77
2023-03-05T23:40:53.765Z,11.47
2023-03-05T23:43:22.273Z,9.27
2023-03-05T23:45:49.578Z,11.43
2023-03-05T23:48:17.475Z,9.67
2023-03-05T23:50:47.673Z,9.40
2023-03-05T23:53:19.916Z,9.20
2023-03-05T23:55:47.656Z,9.17
2023-03-05T23:58:15.022Z,9.10
